createdAt,value
2023-02-17T00:01:22.863Z,37.80
2023-02-17T00:03:51.376Z,39.22
2023-02-17T00:06:21.197Z,41.50
2023-02-17T00:08:48.919Z,42.38
2023-02-17T00:11:16.188Z,41.95
2023-02-17T00:13:42.912Z,43.42
2023-02-17T00:16:22.667Z,44.95
2023-02-17T00:18:57.227Z,47.22
2023-02-17T00:21:26.051Z,44.55
2023-02-17T00:23:53.012Z,46.50
2023-02-17T00:26:20.818Z,45.60
2023-02-17T00:28:47.959Z,45.42
2023-02-17T00:31:18.200Z,45.58
2023-02-17T00:33:44.959Z,46.10
2023-02-17T00:36:14.503Z,47.40
2023-02-17T00:38:41.339Z,45.78
2023-02-17T00:41:07.981Z,46.58
2023-02-17T00:43:34.706Z,46.20
2023-02-17T00:46:01.684Z,47.35
2023-02-17T00:48:28.413Z,45.60
2023-02-17T00:50:55.164Z,47.03
2023-02-17T00:53:21.906Z,47.45
2023-02-17T00:55:48.601Z,48.75
2023-02-17T00:58:15.861Z,47.65
2023-02-17T01:00:42.737Z,48.50
2023-02-17T01:03:09.452Z,50.25
2023-02-17T01:05:45.029Z,48.40
2023-02-17T01:08:12.170Z,48.67
2023-02-17T01:10:40.250Z,49.70
2023-02-17T01:13:07.195Z,48.83
2023-02-17T01:15:38.982Z,48.03
2023-02-17T01:18:05.731Z,47.38
2023-02-17T01:20:35.438Z,46.63
2023-02-17T01:23:02.559Z,47.90
2023-02-17T01:25:29.597Z,46.00
2023-02-17T01:27:56.473Z,46.45
2023-02-17T01:30:23.274Z,46.25
2023-02-17T01:32:49.967Z,47.13
2023-02-17T01:35:16.740Z,47.80
2023-02-17T01:37:43.468Z,48.53
2023-02-17T01:40:11.356Z,46.40
2023-02-17T01:42:38.061Z,47.53
2023-02-17T01:45:19.654Z,45.83
2023-02-17T01:47:55.279Z,48.20
2023-02-17T01:50:27.930Z,48.25
2023-02-17T01:52:55.951Z,46.30
2023-02-17T01:55:24.936Z,47.38
2023-02-17T01:57:56.234Z,47.28
2023-02-17T02:00:25.920Z,46.47
2023-02-17T02:02:52.939Z,47.35
2023-02-17T02:05:20.931Z,48.00
2023-02-17T02:07:49.602Z,50.10
2023-02-17T02:10:17.347Z,50.47
2023-02-17T02:12:44.877Z,52.03
2023-02-17T02:15:15.447Z,53.30
2023-02-17T02:18:03.982Z,55.85
2023-02-17T02:20:41.876Z,57.13
2023-02-17T02:23:43.876Z,58.42
2023-02-17T02:26:38.509Z,59.08
2023-02-17T02:29:22.792Z,61.38
2023-02-17T02:32:26.397Z,61.80
2023-02-17T02:35:03.044Z,65.53
2023-02-17T02:37:36.771Z,65.80
2023-02-17T02:40:08.150Z,68.75
2023-02-17T02:42:35.321Z,66.78
2023-02-17T02:45:02.241Z,67.68
2023-02-17T02:47:44.426Z,69.32
2023-02-17T02:50:17.266Z,64.45
2023-02-17T02:52:56.177Z,65.75
2023-02-17T02:55:37.500Z,65.93
2023-02-17T02:58:33.040Z,64.40
2023-02-17T03:01:11.867Z,66.55
2023-02-17T03:04:01.835Z,68.45
2023-02-17T03:06:42.276Z,67.72
2023-02-17T03:09:17.923Z,66.82
2023-02-17T03:14:16.379Z,67.00
2023-02-17T03:16:43.607Z,69.22
2023-02-17T03:19:12.343Z,68.57
2023-02-17T03:21:46.363Z,66.22
2023-02-17T03:24:13.107Z,66.38
2023-02-17T03:26:39.756Z,67.95
2023-02-17T03:29:06.502Z,67.72
2023-02-17T03:31:33.737Z,69.22
2023-02-17T03:34:00.655Z,66.15
2023-02-17T03:36:27.573Z,67.65
2023-02-17T03:38:54.272Z,66.93
2023-02-17T03:41:21.036Z,67.93
2023-02-17T03:43:47.686Z,67.95
2023-02-17T03:46:16.308Z,68.57
2023-02-17T03:48:43.344Z,69.70
2023-02-17T03:51:16.415Z,71.28
2023-02-17T03:53:44.964Z,73.80
2023-02-17T03:56:13.787Z,73.30
2023-02-17T03:58:41.322Z,74.15
2023-02-17T04:01:09.850Z,77.93
2023-02-17T04:03:36.770Z,76.15
2023-02-17T04:06:04.527Z,78.85
2023-02-17T04:08:31.634Z,78.78
2023-02-17T04:11:01.106Z,81.85
2023-02-17T04:13:28.532Z,79.43
2023-02-17T04:15:55.724Z,83.05
2023-02-17T04:18:23.348Z,80.97
2023-02-17T04:20:51.338Z,80.53
2023-02-17T04:23:18.405Z,79.18
2023-02-17T04:25:45.234Z,78.47
2023-02-17T04:28:12.475Z,81.97
2023-02-17T04:30:39.799Z,84.28
2023-02-17T04:33:06.532Z,80.32
2023-02-17T04:35:33.283Z,81.05
2023-02-17T04:38:00.017Z,82.40
2023-02-17T04:40:26.966Z,79.07
2023-02-17T04:42:53.645Z,82.68
2023-02-17T04:45:20.499Z,83.78
2023-02-17T04:47:47.128Z,83.78
2023-02-17T04:50:14.260Z,82.32
2023-02-17T04:52:41.005Z,81.85
2023-02-17T04:55:07.999Z,81.60
2023-02-17T04:57:35.254Z,84.95
2023-02-17T05:00:02.078Z,76.80
2023-02-17T05:02:28.884Z,79.82
2023-02-17T05:04:55.585Z,79.55
2023-02-17T05:07:22.495Z,81.72
2023-02-17T05:09:49.215Z,82.40
2023-02-17T05:12:15.921Z,79.63
2023-02-17T05:14:42.591Z,81.47
2023-02-17T05:17:09.286Z,82.60
2023-02-17T05:19:36.161Z,79.75
2023-02-17T05:22:03.125Z,78.25
2023-02-17T05:24:29.949Z,78.53
2023-02-17T05:26:56.624Z,80.55
2023-02-17T05:29:23.314Z,82.00
2023-02-17T05:31:50.134Z,78.55
2023-02-17T05:34:16.858Z,81.10
2023-02-17T05:36:43.601Z,81.70
2023-02-17T05:39:10.281Z,81.13
2023-02-17T05:41:36.972Z,77.60
2023-02-17T05:44:03.825Z,79.40
2023-02-17T05:46:30.514Z,73.68
2023-02-17T05:48:57.158Z,74.47
2023-02-17T05:51:24.081Z,71.80
2023-02-17T05:53:50.803Z,71.43
2023-02-17T05:56:17.523Z,70.10
2023-02-17T05:58:44.236Z,69.13
2023-02-17T06:01:12.134Z,68.28
2023-02-17T06:03:39.315Z,67.65
2023-02-17T06:06:06.663Z,68.57
2023-02-17T06:08:34.670Z,66.18
2023-02-17T06:11:01.384Z,67.13
2023-02-17T06:13:28.167Z,69.00
2023-02-17T06:15:54.875Z,69.20
2023-02-17T06:18:21.640Z,65.22
2023-02-17T06:20:48.381Z,63.60
2023-02-17T06:23:15.062Z,61.95
2023-02-17T06:25:42.157Z,61.08
2023-02-17T06:28:08.877Z,60.08
2023-02-17T06:30:35.541Z,58.50
2023-02-17T06:33:02.241Z,56.38
2023-02-17T06:35:28.988Z,56.30
2023-02-17T06:37:55.699Z,55.58
2023-02-17T06:40:23.539Z,55.65
2023-02-17T06:42:50.308Z,56.33
2023-02-17T06:45:17.242Z,55.83
2023-02-17T06:47:43.961Z,53.20
2023-02-17T06:50:11.491Z,51.50
2023-02-17T06:52:38.328Z,52.15
2023-02-17T06:55:05.229Z,51.42
2023-02-17T06:57:32.018Z,50.33
2023-02-17T06:59:59.310Z,51.03
2023-02-17T07:02:26.592Z,49.38
2023-02-17T07:04:53.342Z,47.10
2023-02-17T07:07:20.019Z,46.53
2023-02-17T07:09:46.772Z,46.13
2023-02-17T07:12:13.511Z,47.80
2023-02-17T07:14:40.224Z,45.47
2023-02-17T07:17:07.003Z,46.15
2023-02-17T07:19:34.041Z,43.70
2023-02-17T07:22:01.027Z,44.40
2023-02-17T07:24:27.865Z,42.67
2023-02-17T07:27:04.532Z,42.53
2023-02-17T07:29:31.482Z,41.63
2023-02-17T07:31:58.301Z,39.67
2023-02-17T07:34:25.564Z,41.92
2023-02-17T07:36:52.436Z,39.75
2023-02-17T07:39:19.284Z,38.92
2023-02-17T07:41:46.240Z,39.47
2023-02-17T07:44:14.445Z,39.15
2023-02-17T07:46:41.426Z,37.90
2023-02-17T07:49:16.619Z,38.00
2023-02-17T08:03:30.303Z,36.60
2023-02-17T08:05:58.440Z,37.58
2023-02-17T08:08:26.687Z,36.35
2023-02-17T08:10:54.193Z,35.13
2023-02-17T08:13:21.743Z,34.00
2023-02-17T08:15:49.015Z,36.22
2023-02-17T08:18:16.106Z,34.70
2023-02-17T08:20:43.811Z,34.05
2023-02-17T08:23:11.611Z,33.70
2023-02-17T08:25:39.757Z,31.38
2023-02-17T08:28:06.782Z,32.45
2023-02-17T08:30:36.219Z,33.47
2023-02-17T08:33:03.531Z,32.15
2023-02-17T08:35:30.434Z,31.15
2023-02-17T08:41:02.041Z,32.70
2023-02-17T08:43:37.476Z,32.00
2023-02-17T08:46:19.956Z,33.38
2023-02-17T08:49:01.317Z,33.22
2023-02-17T08:51:36.307Z,32.30
2023-02-17T08:57:16.423Z,33.00
2023-02-17T08:59:48.166Z,32.47
2023-02-17T09:02:17.668Z,31.08
2023-02-17T09:04:45.855Z,34.15
2023-02-17T09:07:15.458Z,33.35
2023-02-17T09:09:47.529Z,34.38
2023-02-17T09:12:14.804Z,33.47
2023-02-17T09:14:41.524Z,35.78
2023-02-17T09:17:08.556Z,32.95
2023-02-17T09:19:38.944Z,33.03
2023-02-17T09:22:06.935Z,33.30
2023-02-17T09:24:34.392Z,33.72
2023-02-17T09:27:02.069Z,35.95
2023-02-17T09:29:34.630Z,33.30
2023-02-17T09:32:04.956Z,35.17
2023-02-17T09:34:46.634Z,34.50
2023-02-17T09:37:17.082Z,35.70
2023-02-17T09:39:55.478Z,36.40
2023-02-17T09:46:01.771Z,34.72
2023-02-17T09:48:53.970Z,35.42
2023-02-17T09:52:18.191Z,35.72
2023-02-17T09:54:59.481Z,37.72
2023-02-17T09:57:48.336Z,39.60
2023-02-17T10:00:29.465Z,35.35
2023-02-17T10:03:26.079Z,36.75
2023-02-17T10:08:48.454Z,39.72
2023-02-17T10:11:56.499Z,37.83
2023-02-17T10:14:45.369Z,40.38
2023-02-17T10:17:28.349Z,38.65
2023-02-17T10:20:38.792Z,40.25
2023-02-17T10:24:03.852Z,41.60
2023-02-17T10:27:19.678Z,42.13
2023-02-17T10:30:14.392Z,40.70
2023-02-17T10:33:10.606Z,40.60
2023-02-17T10:35:51.742Z,39.72
2023-02-17T10:38:44.328Z,41.83
2023-02-17T10:41:15.657Z,40.90
2023-02-17T10:43:48.743Z,38.25
2023-02-17T10:46:19.046Z,37.95
2023-02-17T10:48:52.532Z,35.22
2023-02-17T10:51:28.399Z,35.08
2023-02-17T10:54:05.682Z,37.10
2023-02-17T10:57:09.815Z,35.85
2023-02-17T10:59:49.175Z,36.00
2023-02-17T11:02:20.642Z,37.00
2023-02-17T11:04:51.026Z,36.10
2023-02-17T11:07:23.903Z,35.67
2023-02-17T11:09:57.591Z,34.25
2023-02-17T11:12:41.394Z,33.83
2023-02-17T11:15:34.340Z,34.05
2023-02-17T11:18:08.945Z,32.65
2023-02-17T11:20:36.980Z,33.23
2023-02-17T11:23:08.699Z,31.52
2023-02-17T11:25:36.607Z,32.50
2023-02-17T11:28:24.108Z,31.48
2023-02-17T11:30:58.354Z,31.95
2023-02-17T11:33:35.505Z,31.42
2023-02-17T11:36:03.686Z,29.23
2023-02-17T11:38:38.018Z,30.65
2023-02-17T11:41:06.748Z,30.60
2023-02-17T11:43:35.477Z,29.40
2023-02-17T11:46:17.951Z,27.75
2023-02-17T11:49:03.200Z,27.98
2023-02-17T11:51:45.937Z,27.42
2023-02-17T11:54:15.317Z,28.80
2023-02-17T11:56:47.151Z,26.48
2023-02-17T11:59:53.130Z,26.13
2023-02-17T12:02:44.497Z,23.60
2023-02-17T12:05:44.792Z,23.95
2023-02-17T12:08:30.261Z,23.00
2023-02-17T12:11:15.195Z,24.25
2023-02-17T12:13:54.435Z,21.98
2023-02-17T12:16:38.262Z,20.75
2023-02-17T12:19:23.690Z,21.85
2023-02-17T12:21:50.435Z,20.42
2023-02-17T12:25:04.598Z,20.08
2023-02-17T12:27:34.202Z,19.20
2023-02-17T12:30:19.688Z,18.52
2023-02-17T12:33:23.639Z,17.33
2023-02-17T12:35:57.844Z,17.65
2023-02-17T12:38:30.871Z,16.33
2023-02-17T12:40:57.532Z,15.15
2023-02-17T12:43:31.184Z,15.90
2023-02-17T12:46:00.919Z,14.55
2023-02-17T12:48:47.076Z,14.35
2023-02-17T12:52:11.744Z,13.73
2023-02-17T12:54:50.033Z,13.70
2023-02-17T12:57:27.609Z,12.75
2023-02-17T12:59:56.564Z,14.15
2023-02-17T13:02:25.232Z,12.30
2023-02-17T13:04:54.805Z,12.90
2023-02-17T13:07:45.571Z,12.07
2023-02-17T13:10:29.629Z,12.85
2023-02-17T13:13:10.682Z,12.20
2023-02-17T13:15:43.455Z,11.90
2023-02-17T13:18:32.310Z,12.00
2023-02-17T13:21:20.667Z,11.27
2023-02-17T13:24:37.512Z,10.40
2023-02-17T13:27:20.699Z,11.30
2023-02-17T13:29:59.517Z,10.30
2023-02-17T13:32:35.247Z,10.40
2023-02-17T13:37:33.714Z,10.13
2023-02-17T13:40:21.090Z,9.25
2023-02-17T13:42:52.460Z,8.18
2023-02-17T13:45:42.965Z,9.27
2023-02-17T13:48:25.543Z,8.98
2023-02-17T13:50:59.074Z,8.82
2023-02-17T13:53:40.557Z,8.05
2023-02-17T13:56:23.204Z,7.90
2023-02-17T13:58:50.133Z,8.43
2023-02-17T14:01:19.892Z,8.00
2023-02-17T14:03:54.994Z,7.07
2023-02-17T14:06:32.419Z,7.65
2023-02-17T14:08:59.858Z,7.07
2023-02-17T14:11:29.786Z,7.43
2023-02-17T14:13:59.103Z,7.00
2023-02-17T14:16:33.613Z,7.70
2023-02-17T14:19:19.341Z,7.50
2023-02-17T14:22:01.480Z,7.35
2023-02-17T14:24:30.471Z,7.63
2023-02-17T14:27:06.136Z,7.40
2023-02-17T14:32:35.920Z,7.88
2023-02-17T14:35:10.072Z,8.18
2023-02-17T14:37:36.799Z,8.02
2023-02-17T14:40:39.689Z,7.95
2023-02-17T14:43:06.973Z,7.53
2023-02-17T14:45:33.616Z,7.43
2023-02-17T14:48:00.249Z,7.80
2023-02-17T14:50:27.062Z,8.50
2023-02-17T14:52:53.886Z,9.32
2023-02-17T14:55:59.851Z,10.40
2023-02-17T14:58:28.024Z,11.20
2023-02-17T15:00:54.825Z,12.63
2023-02-17T15:03:21.594Z,13.10
2023-02-17T15:05:48.732Z,13.25
2023-02-17T15:08:19.186Z,15.38
2023-02-17T15:10:46.486Z,14.35
2023-02-17T15:13:21.545Z,14.57
2023-02-17T15:15:48.820Z,16.80
2023-02-17T15:18:17.605Z,16.42
2023-02-17T15:20:47.307Z,17.50
2023-02-17T15:23:19.666Z,17.10
2023-02-17T15:25:47.342Z,18.00
2023-02-17T15:28:16.065Z,18.23
2023-02-17T15:30:51.868Z,18.60
2023-02-17T15:33:20.094Z,20.45
2023-02-17T15:35:50.884Z,18.83
2023-02-17T15:38:17.583Z,20.73
2023-02-17T15:40:44.324Z,20.05
2023-02-17T15:43:18.502Z,20.80
2023-02-17T15:45:45.950Z,20.83
2023-02-17T15:48:24.920Z,18.17
2023-02-17T15:50:52.783Z,20.08
2023-02-17T15:53:19.603Z,19.90
2023-02-17T15:55:47.016Z,19.45
2023-02-17T15:58:17.583Z,18.65
2023-02-17T16:00:45.608Z,17.92
2023-02-17T16:03:13.596Z,17.33
2023-02-17T16:05:42.346Z,19.23
2023-02-17T16:08:09.332Z,18.15
2023-02-17T16:10:36.832Z,18.10
2023-02-17T16:13:03.661Z,18.55
2023-02-17T16:15:32.342Z,17.83
2023-02-17T16:17:59.291Z,18.45
2023-02-17T16:20:28.831Z,17.38
2023-02-17T16:22:55.703Z,18.10
2023-02-17T16:25:23.041Z,18.45
2023-02-17T16:27:51.813Z,17.02
2023-02-17T16:30:22.081Z,16.55
2023-02-17T16:32:49.645Z,16.50
2023-02-17T16:35:18.648Z,16.52
2023-02-17T16:38:16.998Z,15.00
2023-02-17T16:40:48.076Z,14.00
2023-02-17T16:43:17.164Z,12.80
2023-02-17T16:46:04.421Z,11.63
2023-02-17T16:48:34.885Z,11.27
2023-02-17T16:51:01.819Z,10.15
2023-02-17T16:53:28.583Z,9.88
2023-02-17T16:55:56.264Z,9.95
2023-02-17T16:58:25.943Z,10.27
2023-02-17T17:00:54.538Z,9.85
2023-02-17T17:03:21.676Z,9.88
2023-02-17T17:05:50.022Z,9.05
2023-02-17T17:08:16.881Z,8.80
2023-02-17T17:10:45.569Z,8.45
2023-02-17T17:13:13.425Z,7.75
2023-02-17T17:15:43.779Z,7.95
2023-02-17T17:18:18.592Z,7.85
2023-02-17T17:20:45.418Z,6.87
2023-02-17T17:23:15.101Z,7.10
2023-02-17T17:25:44.005Z,6.47
2023-02-17T17:28:18.518Z,6.25
2023-02-17T17:30:46.054Z,6.38
2023-02-17T17:33:12.799Z,6.88
2023-02-17T17:35:39.675Z,6.50
2023-02-17T17:38:06.572Z,6.40
2023-02-17T17:40:37.079Z,6.15
2023-02-17T17:43:04.006Z,5.53
2023-02-17T17:45:30.805Z,6.50
2023-02-17T17:47:57.502Z,5.75
2023-02-17T17:50:24.757Z,5.70
2023-02-17T17:52:51.490Z,6.03
2023-02-17T17:55:18.243Z,5.65
2023-02-17T17:57:45.264Z,5.47
2023-02-17T18:00:15.180Z,5.65
2023-02-17T18:02:42.460Z,6.20
2023-02-17T18:05:09.619Z,6.93
2023-02-17T18:07:38.487Z,8.93
2023-02-17T18:10:09.265Z,11.57
2023-02-17T18:12:36.619Z,11.02
2023-02-17T18:15:04.266Z,9.73
2023-02-17T18:17:37.134Z,5.88
2023-02-17T18:20:05.601Z,4.65
2023-02-17T18:22:32.506Z,3.92
2023-02-17T18:24:59.266Z,3.92
2023-02-17T18:27:26.084Z,4.05
2023-02-17T18:29:56.604Z,3.00
2023-02-17T18:32:23.408Z,3.17
2023-02-17T18:34:50.187Z,3.05
2023-02-17T18:37:16.850Z,2.47
2023-02-17T18:39:43.517Z,2.20
2023-02-17T18:42:10.182Z,2.58
2023-02-17T18:44:36.856Z,2.13
2023-02-17T18:47:03.649Z,3.10
2023-02-17T18:49:30.373Z,2.72
2023-02-17T18:51:57.090Z,2.75
2023-02-17T18:54:23.981Z,2.67
2023-02-17T18:56:50.834Z,2.90
2023-02-17T18:59:17.788Z,3.03
2023-02-17T19:01:47.063Z,2.70
2023-02-17T19:04:14.592Z,2.90
2023-02-17T19:06:41.463Z,2.50
2023-02-17T19:09:08.245Z,2.40
2023-02-17T19:11:35.217Z,2.40
2023-02-17T19:14:02.917Z,1.95
2023-02-17T19:16:31.630Z,2.15
2023-02-17T19:18:59.313Z,2.53
2023-02-17T19:21:26.406Z,2.47
2023-02-17T19:23:53.810Z,2.30
2023-02-17T19:26:21.346Z,2.30
2023-02-17T19:28:48.770Z,2.33
2023-02-17T19:31:18.585Z,2.83
2023-02-17T19:33:46.400Z,2.13
2023-02-17T19:36:18.594Z,3.05
2023-02-17T19:38:46.593Z,2.40
2023-02-17T19:41:14.507Z,2.35
2023-02-17T19:43:42.803Z,2.50
2023-02-17T19:46:17.428Z,2.42
2023-02-17T19:48:44.248Z,3.00
2023-02-17T19:51:12.223Z,2.75
2023-02-17T19:53:39.080Z,2.40
2023-02-17T19:56:25.055Z,2.75
2023-02-17T19:58:52.311Z,2.72
2023-02-17T20:01:30.544Z,2.95
2023-02-17T20:03:59.058Z,2.75
2023-02-17T20:06:30.109Z,2.53
2023-02-17T20:08:59.806Z,2.60
2023-02-17T20:11:27.556Z,2.75
2023-02-17T20:13:56.447Z,2.75
2023-02-17T20:16:23.512Z,2.80
2023-02-17T20:18:51.340Z,3.20
2023-02-17T20:21:21.153Z,3.00
2023-02-17T20:23:48.188Z,2.80
2023-02-17T20:26:20.560Z,3.53
2023-02-17T20:28:48.368Z,3.70
2023-02-17T20:31:15.391Z,3.53
2023-02-17T20:33:42.365Z,3.15
2023-02-17T20:36:10.481Z,2.95
2023-02-17T20:38:38.589Z,3.45
2023-02-17T20:41:06.702Z,3.58
2023-02-17T20:43:34.263Z,3.75
2023-02-17T20:46:01.717Z,3.55
2023-02-17T20:48:28.516Z,3.38
2023-02-17T20:50:56.746Z,4.05
2023-02-17T20:53:25.185Z,3.60
2023-02-17T20:55:52.689Z,4.30
2023-02-17T20:58:19.534Z,3.97
2023-02-17T21:00:46.454Z,3.85
2023-02-17T21:03:13.352Z,3.85
2023-02-17T21:05:40.164Z,3.88
2023-02-17T21:08:07.207Z,4.25
2023-02-17T21:10:33.920Z,3.88
2023-02-17T21:13:00.873Z,4.18
2023-02-17T21:15:27.974Z,4.22
2023-02-17T21:17:54.818Z,4.25
2023-02-17T21:20:22.427Z,3.58
2023-02-17T21:22:49.845Z,3.78
2023-02-17T21:25:16.635Z,3.75
2023-02-17T21:27:43.483Z,4.32
2023-02-17T21:30:10.879Z,4.25
2023-02-17T21:32:38.492Z,4.05
2023-02-17T21:35:06.154Z,4.47
2023-02-17T21:37:33.956Z,3.75
2023-02-17T21:40:00.736Z,3.97
2023-02-17T21:42:27.474Z,4.82
2023-02-17T21:44:54.202Z,4.28
2023-02-17T21:47:21.776Z,4.80
2023-02-17T21:49:52.773Z,4.30
2023-02-17T21:52:19.475Z,4.30
2023-02-17T21:54:46.442Z,4.18
2023-02-17T21:57:13.265Z,4.57
2023-02-17T21:59:40.387Z,3.92
2023-02-17T22:02:07.520Z,4.55
2023-02-17T22:04:34.335Z,4.18
2023-02-17T22:07:01.121Z,4.40
2023-02-17T22:09:27.923Z,4.35
2023-02-17T22:11:54.646Z,4.22
2023-02-17T22:14:21.374Z,4.10
2023-02-17T22:16:48.956Z,4.38
2023-02-17T22:19:18.459Z,4.07
2023-02-17T22:21:46.184Z,4.25
2023-02-17T22:24:13.823Z,4.00
2023-02-17T22:26:40.725Z,4.00
2023-02-17T22:29:07.667Z,3.60
2023-02-17T22:31:34.610Z,3.90
2023-02-17T22:34:04.422Z,3.88
2023-02-17T22:36:33.929Z,4.40
2023-02-17T22:39:01.329Z,3.78
2023-02-17T22:41:28.473Z,4.20
2023-02-17T22:43:55.415Z,4.82
2023-02-17T22:46:24.570Z,4.00
2023-02-17T22:48:52.757Z,4.18
2023-02-17T22:51:25.344Z,4.35
2023-02-17T22:53:52.382Z,4.30
2023-02-17T22:56:20.127Z,4.40
2023-02-17T22:58:47.440Z,3.90
2023-02-17T23:01:17.855Z,4.35
2023-02-17T23:03:45.142Z,4.65
2023-02-17T23:06:15.392Z,4.57
2023-02-17T23:08:42.212Z,4.35
2023-02-17T23:11:11.979Z,4.38
2023-02-17T23:13:39.426Z,3.97
2023-02-17T23:16:08.140Z,4.85
2023-02-17T23:18:36.148Z,4.20
2023-02-17T23:21:11.740Z,4.57
2023-02-17T23:23:39.047Z,4.32
2023-02-17T23:26:06.473Z,4.28
2023-02-17T23:28:33.781Z,5.00
2023-02-17T23:31:00.636Z,5.00
2023-02-17T23:33:27.543Z,4.32
2023-02-17T23:35:54.381Z,5.40
2023-02-17T23:38:23.997Z,4.25
2023-02-17T23:40:53.202Z,4.70
2023-02-17T23:43:21.431Z,4.93
2023-02-17T23:45:49.049Z,4.25
2023-02-17T23:48:16.716Z,5.18
2023-02-17T23:50:43.450Z,5.00
2023-02-17T23:53:10.291Z,4.90
2023-02-17T23:55:39.269Z,5.60
2023-02-17T23:58:06.237Z,5.47
